sensor_id;sensor_type;location;lat;lon;timestamp;P1;durP1;ratioP1;P2;durP2;ratioP2
11427;SDS011;5770;44.504;11.346;2023-02-28T00:00:39;11.27;;;7.90;;
11427;SDS011;5770;44.504;11.346;2023-02-28T00:03:10;10.95;;;7.95;;
11427;SDS011;5770;44.504;11.346;2023-02-28T00:05:38;16.05;;;8.00;;
11427;SDS011;5770;44.504;11.346;2023-02-28T00:08:06;14.40;;;7.90;;
11427;SDS011;5770;44.504;11.346;2023-02-28T00:10:33;10.88;;;8.30;;
11427;SDS011;5770;44.504;11.346;2023-02-28T00:13:05;16.70;;;8.50;;
11427;SDS011;5770;44.504;11.346;2023-02-28T00:15:33;9.77;;;8.63;;
11427;SDS011;5770;44.504;11.346;2023-02-28T00:18:00;12.65;;;9.60;;
11427;SDS011;5770;44.504;11.346;2023-02-28T00:20:28;12.25;;;9.38;;
11427;SDS011;5770;44.504;11.346;2023-02-28T00:22:55;10.77;;;8.95;;
11427;SDS011;5770;44.504;11.346;2023-02-28T00:25:23;11.48;;;9.20;;
11427;SDS011;5770;44.504;11.346;2023-02-28T00:27:54;10.07;;;8.32;;
11427;SDS011;5770;44.504;11.346;2023-02-28T00:30:23;10.82;;;8.70;;
11427;SDS011;5770;44.504;11.346;2023-02-28T00:32:50;9.05;;;8.15;;
11427;SDS011;5770;44.504;11.346;2023-02-28T00:35:17;12.27;;;8.70;;
11427;SDS011;5770;44.504;11.346;2023-02-28T00:37:44;10.68;;;8.45;;
11427;SDS011;5770;44.504;11.346;2023-02-28T00:40:14;9.25;;;8.13;;
11427;SDS011;5770;44.504;11.346;2023-02-28T00:42:42;12.68;;;7.85;;
11427;SDS011;5770;44.504;11.346;2023-02-28T00:45:09;10.57;;;8.48;;
11427;SDS011;5770;44.504;11.346;2023-02-28T00:47:38;11.10;;;7.72;;
11427;SDS011;5770;44.504;11.346;2023-02-28T00:50:05;15.38;;;8.48;;
11427;SDS011;5770;44.504;11.346;2023-02-28T00:52:33;11.90;;;8.50;;
11427;SDS011;5770;44.504;11.346;2023-02-28T00:55:00;11.00;;;7.88;;
11427;SDS011;5770;44.504;11.346;2023-02-28T00:57:27;10.60;;;7.88;;
11427;SDS011;5770;44.504;11.346;2023-02-28T00:59:54;10.13;;;7.80;;
11427;SDS011;5770;44.504;11.346;2023-02-28T01:02:22;10.00;;;8.30;;
11427;SDS011;5770;44.504;11.346;2023-02-28T01:04:50;11.13;;;7.30;;
11427;SDS011;5770;44.504;11.346;2023-02-28T01:07:17;10.38;;;7.28;;
11427;SDS011;5770;44.504;11.346;2023-02-28T01:09:45;10.45;;;7.70;;
11427;SDS011;5770;44.504;11.346;2023-02-28T01:12:12;11.57;;;8.10;;
11427;SDS011;5770;44.504;11.346;2023-02-28T01:14:39;10.63;;;8.25;;
11427;SDS011;5770;44.504;11.346;2023-02-28T01:17:06;12.57;;;7.10;;
11427;SDS011;5770;44.504;11.346;2023-02-28T01:19:33;12.45;;;8.32;;
11427;SDS011;5770;44.504;11.346;2023-02-28T01:22:02;10.98;;;7.75;;
11427;SDS011;5770;44.504;11.346;2023-02-28T01:24:29;12.73;;;7.85;;
11427;SDS011;5770;44.504;11.346;2023-02-28T01:26:56;15.95;;;7.82;;
11427;SDS011;5770;44.504;11.346;2023-02-28T01:29:24;11.27;;;7.70;;
11427;SDS011;5770;44.504;11.346;2023-02-28T01:31:51;10.55;;;7.95;;
11427;SDS011;5770;44.504;11.346;2023-02-28T01:34:18;10.85;;;7.35;;
11427;SDS011;5770;44.504;11.346;2023-02-28T01:36:45;13.52;;;7.55;;
11427;SDS011;5770;44.504;11.346;2023-02-28T01:39:14;15.20;;;7.97;;
11427;SDS011;5770;44.504;11.346;2023-02-28T01:41:45;10.40;;;7.60;;
11427;SDS011;5770;44.504;11.346;2023-02-28T01:47:16;10.57;;;8.00;;
11427;SDS011;5770;44.504;11.346;2023-02-28T01:49:43;13.45;;;8.20;;
11427;SDS011;5770;44.504;11.346;2023-02-28T01:52:11;11.73;;;8.63;;
11427;SDS011;5770;44.504;11.346;2023-02-28T01:54:41;15.77;;;8.50;;
11427;SDS011;5770;44.504;11.346;2023-02-28T01:57:09;11.80;;;8.85;;
11427;SDS011;5770;44.504;11.346;2023-02-28T01:59:37;10.15;;;8.73;;
11427;SDS011;5770;44.504;11.346;2023-02-28T02:02:05;13.70;;;8.25;;
11427;SDS011;5770;44.504;11.346;2023-02-28T02:04:34;13.93;;;8.65;;
11427;SDS011;5770;44.504;11.346;2023-02-28T02:07:03;10.88;;;7.75;;
11427;SDS011;5770;44.504;11.346;2023-02-28T02:09:31;9.40;;;7.40;;
11427;SDS011;5770;44.504;11.346;2023-02-28T02:11:59;11.48;;;7.65;;
11427;SDS011;5770;44.504;11.346;2023-02-28T02:14:43;12.88;;;7.80;;
11427;SDS011;5770;44.504;11.346;2023-02-28T02:17:18;10.75;;;7.30;;
11427;SDS011;5770;44.504;11.346;2023-02-28T02:22:47;10.50;;;7.60;;
11427;SDS011;5770;44.504;11.346;2023-02-28T02:25:27;12.10;;;7.63;;
11427;SDS011;5770;44.504;11.346;2023-02-28T02:28:02;11.55;;;7.70;;
11427;SDS011;5770;44.504;11.346;2023-02-28T02:30:54;10.95;;;7.68;;
11427;SDS011;5770;44.504;11.346;2023-02-28T02:33:44;12.45;;;8.10;;
11427;SDS011;5770;44.504;11.346;2023-02-28T02:36:17;9.88;;;7.53;;
11427;SDS011;5770;44.504;11.346;2023-02-28T02:38:47;10.13;;;7.50;;
11427;SDS011;5770;44.504;11.346;2023-02-28T02:41:17;10.55;;;8.27;;
11427;SDS011;5770;44.504;11.346;2023-02-28T02:43:46;9.40;;;7.28;;
11427;SDS011;5770;44.504;11.346;2023-02-28T02:46:17;12.15;;;8.15;;
11427;SDS011;5770;44.504;11.346;2023-02-28T02:48:46;12.63;;;8.25;;
11427;SDS011;5770;44.504;11.346;2023-02-28T02:51:15;9.27;;;8.18;;
11427;SDS011;5770;44.504;11.346;2023-02-28T02:53:47;9.80;;;7.47;;
11427;SDS011;5770;44.504;11.346;2023-02-28T02:56:18;11.02;;;8.32;;
11427;SDS011;5770;44.504;11.346;2023-02-28T02:58:47;9.48;;;7.85;;
11427;SDS011;5770;44.504;11.346;2023-02-28T03:01:17;13.43;;;8.18;;
11427;SDS011;5770;44.504;11.346;2023-02-28T03:03:53;13.15;;;8.00;;
11427;SDS011;5770;44.504;11.346;2023-02-28T03:06:23;11.93;;;7.65;;
11427;SDS011;5770;44.504;11.346;2023-02-28T03:08:50;9.43;;;7.72;;
11427;SDS011;5770;44.504;11.346;2023-02-28T03:11:17;10.50;;;8.15;;
11427;SDS011;5770;44.504;11.346;2023-02-28T03:13:52;9.82;;;7.85;;
11427;SDS011;5770;44.504;11.346;2023-02-28T03:16:31;15.80;;;8.45;;
11427;SDS011;5770;44.504;11.346;2023-02-28T03:19:03;8.80;;;7.85;;
11427;SDS011;5770;44.504;11.346;2023-02-28T03:21:43;9.50;;;8.02;;
11427;SDS011;5770;44.504;11.346;2023-02-28T03:24:11;10.07;;;7.68;;
11427;SDS011;5770;44.504;11.346;2023-02-28T03:26:45;10.70;;;8.02;;
11427;SDS011;5770;44.504;11.346;2023-02-28T03:29:16;10.10;;;7.93;;
11427;SDS011;5770;44.504;11.346;2023-02-28T03:31:47;10.77;;;7.82;;
11427;SDS011;5770;44.504;11.346;2023-02-28T03:34:17;9.02;;;7.97;;
11427;SDS011;5770;44.504;11.346;2023-02-28T03:36:48;10.10;;;7.90;;
11427;SDS011;5770;44.504;11.346;2023-02-28T03:39:18;9.05;;;7.93;;
11427;SDS011;5770;44.504;11.346;2023-02-28T03:41:47;8.75;;;7.60;;
11427;SDS011;5770;44.504;11.346;2023-02-28T03:44:19;11.07;;;7.80;;
11427;SDS011;5770;44.504;11.346;2023-02-28T03:46:52;9.95;;;8.27;;
11427;SDS011;5770;44.504;11.346;2023-02-28T03:49:22;10.70;;;8.05;;
11427;SDS011;5770;44.504;11.346;2023-02-28T03:51:54;12.73;;;7.97;;
11427;SDS011;5770;44.504;11.346;2023-02-28T03:54:23;9.65;;;7.90;;
11427;SDS011;5770;44.504;11.346;2023-02-28T03:56:53;8.63;;;7.60;;
11427;SDS011;5770;44.504;11.346;2023-02-28T03:59:25;9.27;;;7.25;;
11427;SDS011;5770;44.504;11.346;2023-02-28T04:01:54;11.75;;;7.90;;
11427;SDS011;5770;44.504;11.346;2023-02-28T04:04:23;9.50;;;8.05;;
11427;SDS011;5770;44.504;11.346;2023-02-28T04:06:51;9.98;;;7.95;;
11427;SDS011;5770;44.504;11.346;2023-02-28T04:09:19;10.88;;;7.60;;
11427;SDS011;5770;44.504;11.346;2023-02-28T04:11:48;11.30;;;8.15;;
11427;SDS011;5770;44.504;11.346;2023-02-28T04:14:17;9.73;;;7.53;;
11427;SDS011;5770;44.504;11.346;2023-02-28T04:16:45;9.30;;;7.25;;
11427;SDS011;5770;44.504;11.346;2023-02-28T04:19:12;10.18;;;7.70;;
11427;SDS011;5770;44.504;11.346;2023-02-28T04:21:40;16.00;;;7.45;;
11427;SDS011;5770;44.504;11.346;2023-02-28T04:24:08;9.25;;;7.30;;
11427;SDS011;5770;44.504;11.346;2023-02-28T04:26:40;8.93;;;7.72;;
11427;SDS011;5770;44.504;11.346;2023-02-28T04:29:09;10.23;;;7.22;;
11427;SDS011;5770;44.504;11.346;2023-02-28T04:31:38;11.25;;;7.43;;
11427;SDS011;5770;44.504;11.346;2023-02-28T04:34:05;10.18;;;7.82;;
11427;SDS011;5770;44.504;11.346;2023-02-28T04:36:32;10.00;;;7.40;;
11427;SDS011;5770;44.504;11.346;2023-02-28T04:38:59;10.10;;;7.80;;
11427;SDS011;5770;44.504;11.346;2023-02-28T04:41:26;8.68;;;7.78;;
11427;SDS011;5770;44.504;11.346;2023-02-28T04:43:55;10.43;;;7.68;;
11427;SDS011;5770;44.504;11.346;2023-02-28T04:46:23;15.10;;;8.07;;
11427;SDS011;5770;44.504;11.346;2023-02-28T04:48:50;8.75;;;7.05;;
11427;SDS011;5770;44.504;11.346;2023-02-28T04:51:18;10.25;;;7.72;;
11427;SDS011;5770;44.504;11.346;2023-02-28T04:53:45;9.57;;;7.53;;
11427;SDS011;5770;44.504;11.346;2023-02-28T04:56:14;9.00;;;8.05;;
11427;SDS011;5770;44.504;11.346;2023-02-28T04:58:42;11.02;;;8.13;;
11427;SDS011;5770;44.504;11.346;2023-02-28T05:01:17;7.95;;;7.18;;
11427;SDS011;5770;44.504;11.346;2023-02-28T05:03:46;11.40;;;8.13;;
11427;SDS011;5770;44.504;11.346;2023-02-28T05:06:13;12.23;;;7.88;;
11427;SDS011;5770;44.504;11.346;2023-02-28T05:08:41;10.23;;;7.72;;
11427;SDS011;5770;44.504;11.346;2023-02-28T05:11:13;10.32;;;8.60;;
11427;SDS011;5770;44.504;11.346;2023-02-28T05:13:41;9.30;;;8.38;;
11427;SDS011;5770;44.504;11.346;2023-02-28T05:16:08;8.77;;;7.82;;
11427;SDS011;5770;44.504;11.346;2023-02-28T05:18:36;9.23;;;8.05;;
11427;SDS011;5770;44.504;11.346;2023-02-28T05:21:03;8.95;;;8.05;;
11427;SDS011;5770;44.504;11.346;2023-02-28T05:23:31;12.27;;;8.10;;
11427;SDS011;5770;44.504;11.346;2023-02-28T05:25:58;9.57;;;8.32;;
11427;SDS011;5770;44.504;11.346;2023-02-28T05:28:25;10.00;;;7.40;;
11427;SDS011;5770;44.504;11.346;2023-02-28T05:30:52;10.35;;;7.50;;
11427;SDS011;5770;44.504;11.346;2023-02-28T05:33:19;11.35;;;8.10;;
11427;SDS011;5770;44.504;11.346;2023-02-28T05:35:48;9.98;;;8.13;;
11427;SDS011;5770;44.504;11.346;2023-02-28T05:38:15;8.40;;;7.60;;
11427;SDS011;5770;44.504;11.346;2023-02-28T05:40:42;9.30;;;8.25;;
11427;SDS011;5770;44.504;11.346;2023-02-28T05:43:10;12.15;;;7.85;;
11427;SDS011;5770;44.504;11.346;2023-02-28T05:45:38;9.40;;;7.80;;
11427;SDS011;5770;44.504;11.346;2023-02-28T05:48:05;10.35;;;8.13;;
11427;SDS011;5770;44.504;11.346;2023-02-28T05:50:32;13.35;;;7.88;;
11427;SDS011;5770;44.504;11.346;2023-02-28T05:53:00;13.07;;;7.80;;
11427;SDS011;5770;44.504;11.346;2023-02-28T05:55:28;8.93;;;8.00;;
11427;SDS011;5770;44.504;11.346;2023-02-28T05:57:55;10.38;;;8.60;;
11427;SDS011;5770;44.504;11.346;2023-02-28T06:00:23;9.35;;;7.75;;
11427;SDS011;5770;44.504;11.346;2023-02-28T06:02:50;10.13;;;8.18;;
11427;SDS011;5770;44.504;11.346;2023-02-28T06:05:21;11.98;;;8.55;;
11427;SDS011;5770;44.504;11.346;2023-02-28T06:07:48;11.18;;;7.43;;
11427;SDS011;5770;44.504;11.346;2023-02-28T06:10:17;9.23;;;8.20;;
11427;SDS011;5770;44.504;11.346;2023-02-28T06:12:44;8.90;;;8.00;;
11427;SDS011;5770;44.504;11.346;2023-02-28T06:15:12;9.90;;;8.55;;
11427;SDS011;5770;44.504;11.346;2023-02-28T06:17:41;10.30;;;8.18;;
11427;SDS011;5770;44.504;11.346;2023-02-28T06:20:09;12.13;;;8.68;;
11427;SDS011;5770;44.504;11.346;2023-02-28T06:22:37;9.80;;;8.27;;
11427;SDS011;5770;44.504;11.346;2023-02-28T06:25:05;10.02;;;8.82;;
11427;SDS011;5770;44.504;11.346;2023-02-28T06:27:34;9.15;;;8.20;;
11427;SDS011;5770;44.504;11.346;2023-02-28T06:30:02;9.68;;;8.68;;
11427;SDS011;5770;44.504;11.346;2023-02-28T06:32:29;13.27;;;9.05;;
11427;SDS011;5770;44.504;11.346;2023-02-28T06:34:56;10.38;;;8.45;;
11427;SDS011;5770;44.504;11.346;2023-02-28T06:37:23;12.60;;;9.30;;
11427;SDS011;5770;44.504;11.346;2023-02-28T06:39:52;10.95;;;9.02;;
11427;SDS011;5770;44.504;11.346;2023-02-28T06:42:20;12.82;;;9.05;;
11427;SDS011;5770;44.504;11.346;2023-02-28T06:44:51;9.43;;;8.52;;
11427;SDS011;5770;44.504;11.346;2023-02-28T06:47:18;9.40;;;8.25;;
11427;SDS011;5770;44.504;11.346;2023-02-28T06:49:45;9.32;;;8.07;;
11427;SDS011;5770;44.504;11.346;2023-02-28T06:52:12;13.00;;;9.23;;
11427;SDS011;5770;44.504;11.346;2023-02-28T06:54:39;11.07;;;9.48;;
11427;SDS011;5770;44.504;11.346;2023-02-28T06:57:06;9.82;;;8.27;;
11427;SDS011;5770;44.504;11.346;2023-02-28T06:59:34;14.73;;;9.73;;
11427;SDS011;5770;44.504;11.346;2023-02-28T07:02:03;11.23;;;8.38;;
11427;SDS011;5770;44.504;11.346;2023-02-28T07:04:31;11.13;;;9.35;;
11427;SDS011;5770;44.504;11.346;2023-02-28T07:06:58;10.68;;;9.23;;
11427;SDS011;5770;44.504;11.346;2023-02-28T07:09:26;12.68;;;9.82;;
11427;SDS011;5770;44.504;11.346;2023-02-28T07:11:55;10.27;;;9.00;;
11427;SDS011;5770;44.504;11.346;2023-02-28T07:14:22;14.77;;;9.85;;
11427;SDS011;5770;44.504;11.346;2023-02-28T07:16:49;14.18;;;9.02;;
11427;SDS011;5770;44.504;11.346;2023-02-28T07:19:18;17.25;;;10.10;;
11427;SDS011;5770;44.504;11.346;2023-02-28T07:21:45;10.70;;;9.52;;
11427;SDS011;5770;44.504;11.346;2023-02-28T07:24:12;11.40;;;9.77;;
11427;SDS011;5770;44.504;11.346;2023-02-28T07:26:40;11.23;;;10.13;;
11427;SDS011;5770;44.504;11.346;2023-02-28T07:29:07;12.23;;;9.75;;
11427;SDS011;5770;44.504;11.346;2023-02-28T07:31:34;12.20;;;9.93;;
11427;SDS011;5770;44.504;11.346;2023-02-28T07:34:02;13.90;;;9.45;;
11427;SDS011;5770;44.504;11.346;2023-02-28T07:36:31;15.55;;;9.52;;
11427;SDS011;5770;44.504;11.346;2023-02-28T07:38:58;13.63;;;9.95;;
11427;SDS011;5770;44.504;11.346;2023-02-28T07:41:25;12.25;;;10.25;;
11427;SDS011;5770;44.504;11.346;2023-02-28T07:43:55;13.80;;;10.65;;
11427;SDS011;5770;44.504;11.346;2023-02-28T07:46:24;11.43;;;10.02;;
11427;SDS011;5770;44.504;11.346;2023-02-28T07:48:52;10.98;;;9.70;;
11427;SDS011;5770;44.504;11.346;2023-02-28T07:51:20;14.25;;;10.18;;
11427;SDS011;5770;44.504;11.346;2023-02-28T07:53:49;13.40;;;10.20;;
11427;SDS011;5770;44.504;11.346;2023-02-28T07:56:16;13.52;;;10.52;;
11427;SDS011;5770;44.504;11.346;2023-02-28T07:58:43;15.73;;;10.98;;
11427;SDS011;5770;44.504;11.346;2023-02-28T08:01:11;11.25;;;9.85;;
11427;SDS011;5770;44.504;11.346;2023-02-28T08:03:39;20.70;;;10.68;;
11427;SDS011;5770;44.504;11.346;2023-02-28T08:06:07;13.35;;;10.57;;
11427;SDS011;5770;44.504;11.346;2023-02-28T08:08:35;15.10;;;10.68;;
11427;SDS011;5770;44.504;11.346;2023-02-28T08:11:03;13.27;;;10.93;;
11427;SDS011;5770;44.504;11.346;2023-02-28T08:13:30;14.30;;;11.35;;
11427;SDS011;5770;44.504;11.346;2023-02-28T08:15:58;13.50;;;10.90;;
11427;SDS011;5770;44.504;11.346;2023-02-28T08:18:27;18.02;;;10.35;;
11427;SDS011;5770;44.504;11.346;2023-02-28T08:20:55;13.90;;;10.88;;
11427;SDS011;5770;44.504;11.346;2023-02-28T08:23:22;14.23;;;10.10;;
11427;SDS011;5770;44.504;11.346;2023-02-28T08:25:52;12.57;;;10.85;;
11427;SDS011;5770;44.504;11.346;2023-02-28T08:28:21;14.40;;;10.65;;
11427;SDS011;5770;44.504;11.346;2023-02-28T08:30:49;18.13;;;11.07;;
11427;SDS011;5770;44.504;11.346;2023-02-28T08:33:16;14.15;;;10.85;;
11427;SDS011;5770;44.504;11.346;2023-02-28T08:35:43;13.77;;;10.45;;
11427;SDS011;5770;44.504;11.346;2023-02-28T08:38:10;15.90;;;11.18;;
11427;SDS011;5770;44.504;11.346;2023-02-28T08:40:37;13.27;;;10.55;;
11427;SDS011;5770;44.504;11.346;2023-02-28T08:43:05;16.63;;;11.65;;
11427;SDS011;5770;44.504;11.346;2023-02-28T08:45:34;11.90;;;10.38;;
11427;SDS011;5770;44.504;11.346;2023-02-28T08:48:01;15.50;;;11.57;;
11427;SDS011;5770;44.504;11.346;2023-02-28T08:50:28;17.13;;;11.02;;
11427;SDS011;5770;44.504;11.346;2023-02-28T08:52:56;13.88;;;10.60;;
11427;SDS011;5770;44.504;11.346;2023-02-28T08:55:23;13.93;;;11.07;;
11427;SDS011;5770;44.504;11.346;2023-02-28T08:57:50;15.57;;;10.70;;
11427;SDS011;5770;44.504;11.346;2023-02-28T09:00:20;14.07;;;10.85;;
11427;SDS011;5770;44.504;11.346;2023-02-28T09:02:49;12.60;;;11.27;;
11427;SDS011;5770;44.504;11.346;2023-02-28T09:05:16;11.57;;;10.32;;
11427;SDS011;5770;44.504;11.346;2023-02-28T09:07:43;12.55;;;11.25;;
11427;SDS011;5770;44.504;11.346;2023-02-28T09:10:12;14.57;;;11.38;;
11427;SDS011;5770;44.504;11.346;2023-02-28T09:12:39;17.33;;;11.10;;
11427;SDS011;5770;44.504;11.346;2023-02-28T09:15:06;16.92;;;11.40;;
11427;SDS011;5770;44.504;11.346;2023-02-28T09:17:34;21.38;;;12.23;;
11427;SDS011;5770;44.504;11.346;2023-02-28T09:20:02;19.13;;;11.55;;
11427;SDS011;5770;44.504;11.346;2023-02-28T09:22:30;17.23;;;11.65;;
11427;SDS011;5770;44.504;11.346;2023-02-28T09:24:57;13.63;;;11.55;;
11427;SDS011;5770;44.504;11.346;2023-02-28T09:27:24;16.40;;;11.38;;
11427;SDS011;5770;44.504;11.346;2023-02-28T09:29:52;14.13;;;11.57;;
11427;SDS011;5770;44.504;11.346;2023-02-28T09:32:19;12.48;;;11.18;;
11427;SDS011;5770;44.504;11.346;2023-02-28T09:34:46;13.00;;;11.63;;
11427;SDS011;5770;44.504;11.346;2023-02-28T09:37:15;15.13;;;10.63;;
11427;SDS011;5770;44.504;11.346;2023-02-28T09:39:42;15.90;;;11.20;;
11427;SDS011;5770;44.504;11.346;2023-02-28T09:42:12;14.65;;;11.95;;
11427;SDS011;5770;44.504;11.346;2023-02-28T09:44:47;22.92;;;12.20;;
11427;SDS011;5770;44.504;11.346;2023-02-28T09:47:17;16.45;;;11.05;;
11427;SDS011;5770;44.504;11.346;2023-02-28T09:49:52;15.07;;;12.10;;
11427;SDS011;5770;44.504;11.346;2023-02-28T09:52:21;13.90;;;11.60;;
11427;SDS011;5770;44.504;11.346;2023-02-28T09:54:53;16.30;;;12.13;;
11427;SDS011;5770;44.504;11.346;2023-02-28T09:57:23;13.80;;;11.00;;
11427;SDS011;5770;44.504;11.346;2023-02-28T09:59:59;15.27;;;11.48;;
11427;SDS011;5770;44.504;11.346;2023-02-28T10:05:28;15.88;;;12.00;;
11427;SDS011;5770;44.504;11.346;2023-02-28T10:08:05;15.35;;;11.30;;
11427;SDS011;5770;44.504;11.346;2023-02-28T10:10:39;13.45;;;11.63;;
11427;SDS011;5770;44.504;11.346;2023-02-28T10:13:11;17.10;;;12.05;;
11427;SDS011;5770;44.504;11.346;2023-02-28T10:15:43;15.38;;;11.80;;
11427;SDS011;5770;44.504;11.346;2023-02-28T10:18:14;13.65;;;10.70;;
11427;SDS011;5770;44.504;11.346;2023-02-28T10:20:43;14.65;;;11.68;;
11427;SDS011;5770;44.504;11.346;2023-02-28T10:23:14;16.70;;;12.32;;
11427;SDS011;5770;44.504;11.346;2023-02-28T10:25:44;14.52;;;11.60;;
11427;SDS011;5770;44.504;11.346;2023-02-28T10:28:14;15.93;;;11.40;;
11427;SDS011;5770;44.504;11.346;2023-02-28T10:30:43;16.00;;;11.45;;
11427;SDS011;5770;44.504;11.346;2023-02-28T10:33:16;15.60;;;11.93;;
11427;SDS011;5770;44.504;11.346;2023-02-28T10:35:44;14.65;;;11.25;;
11427;SDS011;5770;44.504;11.346;2023-02-28T10:38:16;15.25;;;12.13;;
11427;SDS011;5770;44.504;11.346;2023-02-28T10:40:43;12.23;;;10.98;;
11427;SDS011;5770;44.504;11.346;2023-02-28T10:43:18;15.00;;;11.38;;
11427;SDS011;5770;44.504;11.346;2023-02-28T10:45:54;15.60;;;11.55;;
11427;SDS011;5770;44.504;11.346;2023-02-28T10:48:27;15.00;;;12.07;;
11427;SDS011;5770;44.504;11.346;2023-02-28T10:50:56;13.32;;;11.93;;
11427;SDS011;5770;44.504;11.346;2023-02-28T10:53:32;20.70;;;12.38;;
11427;SDS011;5770;44.504;11.346;2023-02-28T10:56:01;13.23;;;11.82;;
11427;SDS011;5770;44.504;11.346;2023-02-28T10:58:30;17.90;;;12.57;;
11427;SDS011;5770;44.504;11.346;2023-02-28T11:01:12;17.58;;;11.88;;
11427;SDS011;5770;44.504;11.346;2023-02-28T11:03:40;15.35;;;11.57;;
11427;SDS011;5770;44.504;11.346;2023-02-28T11:06:07;15.77;;;12.32;;
11427;SDS011;5770;44.504;11.346;2023-02-28T11:08:45;14.50;;;11.38;;
11427;SDS011;5770;44.504;11.346;2023-02-28T11:11:12;14.50;;;11.88;;
11427;SDS011;5770;44.504;11.346;2023-02-28T11:13:42;18.08;;;11.70;;
11427;SDS011;5770;44.504;11.346;2023-02-28T11:16:12;14.00;;;12.60;;
11427;SDS011;5770;44.504;11.346;2023-02-28T11:18:41;16.23;;;12.85;;
11427;SDS011;5770;44.504;11.346;2023-02-28T11:21:11;13.10;;;11.80;;
11427;SDS011;5770;44.504;11.346;2023-02-28T11:23:42;14.57;;;11.85;;
11427;SDS011;5770;44.504;11.346;2023-02-28T11:26:12;16.75;;;12.02;;
11427;SDS011;5770;44.504;11.346;2023-02-28T11:28:41;14.30;;;12.13;;
11427;SDS011;5770;44.504;11.346;2023-02-28T11:31:17;14.77;;;12.48;;
11427;SDS011;5770;44.504;11.346;2023-02-28T11:33:48;18.83;;;12.20;;
11427;SDS011;5770;44.504;11.346;2023-02-28T11:36:18;13.93;;;11.75;;
11427;SDS011;5770;44.504;11.346;2023-02-28T11:38:46;15.25;;;11.80;;
11427;SDS011;5770;44.504;11.346;2023-02-28T11:41:19;16.50;;;11.05;;
11427;SDS011;5770;44.504;11.346;2023-02-28T11:43:58;15.35;;;11.65;;
11427;SDS011;5770;44.504;11.346;2023-02-28T11:46:38;13.38;;;10.93;;
11427;SDS011;5770;44.504;11.346;2023-02-28T11:49:16;13.10;;;11.70;;
11427;SDS011;5770;44.504;11.346;2023-02-28T11:51:47;18.50;;;11.63;;
11427;SDS011;5770;44.504;11.346;2023-02-28T11:54:23;13.55;;;11.95;;
11427;SDS011;5770;44.504;11.346;2023-02-28T11:57:08;16.52;;;11.75;;
11427;SDS011;5770;44.504;11.346;2023-02-28T11:59:45;13.13;;;11.40;;
11427;SDS011;5770;44.504;11.346;2023-02-28T12:02:20;13.80;;;12.00;;
11427;SDS011;5770;44.504;11.346;2023-02-28T12:04:52;15.05;;;11.70;;
11427;SDS011;5770;44.504;11.346;2023-02-28T12:07:23;17.55;;;11.85;;
11427;SDS011;5770;44.504;11.346;2023-02-28T12:09:55;15.60;;;12.27;;
11427;SDS011;5770;44.504;11.346;2023-02-28T12:12:37;12.65;;;10.60;;
11427;SDS011;5770;44.504;11.346;2023-02-28T12:15:16;15.50;;;11.40;;
11427;SDS011;5770;44.504;11.346;2023-02-28T12:18:15;15.63;;;10.70;;
11427;SDS011;5770;44.504;11.346;2023-02-28T12:20:46;15.27;;;11.02;;
11427;SDS011;5770;44.504;11.346;2023-02-28T12:26:25;13.30;;;10.35;;
11427;SDS011;5770;44.504;11.346;2023-02-28T12:29:00;13.65;;;11.27;;
11427;SDS011;5770;44.504;11.346;2023-02-28T12:31:38;14.82;;;11.00;;
11427;SDS011;5770;44.504;11.346;2023-02-28T12:34:09;14.15;;;11.60;;
11427;SDS011;5770;44.504;11.346;2023-02-28T12:36:39;11.98;;;10.43;;
11427;SDS011;5770;44.504;11.346;2023-02-28T12:39:08;13.63;;;11.10;;
11427;SDS011;5770;44.504;11.346;2023-02-28T12:41:39;13.90;;;10.38;;
11427;SDS011;5770;44.504;11.346;2023-02-28T12:44:11;16.70;;;11.35;;
11427;SDS011;5770;44.504;11.346;2023-02-28T12:46:41;15.07;;;10.57;;
11427;SDS011;5770;44.504;11.346;2023-02-28T12:49:10;24.83;;;11.73;;
11427;SDS011;5770;44.504;11.346;2023-02-28T12:51:39;13.93;;;10.85;;
11427;SDS011;5770;44.504;11.346;2023-02-28T12:54:10;12.35;;;11.05;;
11427;SDS011;5770;44.504;11.346;2023-02-28T12:56:42;14.18;;;11.55;;
11427;SDS011;5770;44.504;11.346;2023-02-28T12:59:13;12.90;;;11.18;;
11427;SDS011;5770;44.504;11.346;2023-02-28T13:01:48;13.20;;;11.32;;
11427;SDS011;5770;44.504;11.346;2023-02-28T13:05:02;16.17;;;10.95;;
11427;SDS011;5770;44.504;11.346;2023-02-28T13:10:44;14.40;;;11.23;;
11427;SDS011;5770;44.504;11.346;2023-02-28T13:13:18;12.45;;;10.98;;
11427;SDS011;5770;44.504;11.346;2023-02-28T13:16:04;19.20;;;11.57;;
11427;SDS011;5770;44.504;11.346;2023-02-28T13:18:33;11.82;;;10.20;;
11427;SDS011;5770;44.504;11.346;2023-02-28T13:21:04;16.48;;;11.13;;
11427;SDS011;5770;44.504;11.346;2023-02-28T13:23:56;14.48;;;11.52;;
11427;SDS011;5770;44.504;11.346;2023-02-28T13:29:32;13.02;;;11.70;;
11427;SDS011;5770;44.504;11.346;2023-02-28T13:32:28;14.32;;;11.23;;
11427;SDS011;5770;44.504;11.346;2023-02-28T13:35:14;15.23;;;11.77;;
11427;SDS011;5770;44.504;11.346;2023-02-28T13:43:59;16.77;;;11.88;;
11427;SDS011;5770;44.504;11.346;2023-02-28T13:46:29;17.95;;;12.40;;
11427;SDS011;5770;44.504;11.346;2023-02-28T13:48:58;13.45;;;12.00;;
11427;SDS011;5770;44.504;11.346;2023-02-28T13:51:45;20.10;;;13.57;;
11427;SDS011;5770;44.504;11.346;2023-02-28T13:57:05;17.83;;;12.70;;
11427;SDS011;5770;44.504;11.346;2023-02-28T13:59:37;17.38;;;12.20;;
11427;SDS011;5770;44.504;11.346;2023-02-28T14:02:34;14.95;;;13.40;;
11427;SDS011;5770;44.504;11.346;2023-02-28T14:05:06;13.73;;;12.05;;
11427;SDS011;5770;44.504;11.346;2023-02-28T14:07:43;15.85;;;12.85;;
11427;SDS011;5770;44.504;11.346;2023-02-28T14:10:20;15.90;;;13.10;;
11427;SDS011;5770;44.504;11.346;2023-02-28T14:12:53;15.77;;;13.00;;
11427;SDS011;5770;44.504;11.346;2023-02-28T14:15:30;15.10;;;13.45;;
11427;SDS011;5770;44.504;11.346;2023-02-28T14:18:13;18.50;;;13.45;;
11427;SDS011;5770;44.504;11.346;2023-02-28T14:20:59;16.65;;;12.98;;
11427;SDS011;5770;44.504;11.346;2023-02-28T14:23:38;15.98;;;13.27;;
11427;SDS011;5770;44.504;11.346;2023-02-28T14:26:26;17.60;;;13.27;;
11427;SDS011;5770;44.504;11.346;2023-02-28T14:29:14;16.75;;;13.05;;
11427;SDS011;5770;44.504;11.346;2023-02-28T14:31:47;14.32;;;12.20;;
11427;SDS011;5770;44.504;11.346;2023-02-28T14:34:26;18.88;;;12.48;;
11427;SDS011;5770;44.504;11.346;2023-02-28T14:37:02;14.80;;;13.00;;
11427;SDS011;5770;44.504;11.346;2023-02-28T14:39:30;14.60;;;12.95;;
11427;SDS011;5770;44.504;11.346;2023-02-28T14:41:58;13.77;;;12.35;;
11427;SDS011;5770;44.504;11.346;2023-02-28T14:44:31;15.38;;;12.95;;
11427;SDS011;5770;44.504;11.346;2023-02-28T14:46:59;17.05;;;13.52;;
11427;SDS011;5770;44.504;11.346;2023-02-28T14:49:31;16.80;;;13.60;;
11427;SDS011;5770;44.504;11.346;2023-02-28T14:52:03;16.58;;;13.27;;
11427;SDS011;5770;44.504;11.346;2023-02-28T14:54:34;16.58;;;13.52;;
11427;SDS011;5770;44.504;11.346;2023-02-28T14:57:02;18.90;;;14.50;;
11427;SDS011;5770;44.504;11.346;2023-02-28T14:59:30;19.38;;;14.32;;
11427;SDS011;5770;44.504;11.346;2023-02-28T15:02:14;20.58;;;14.85;;
11427;SDS011;5770;44.504;11.346;2023-02-28T15:04:42;18.02;;;14.98;;
11427;SDS011;5770;44.504;11.346;2023-02-28T15:07:12;17.50;;;14.38;;
11427;SDS011;5770;44.504;11.346;2023-02-28T15:09:43;16.60;;;14.77;;
11427;SDS011;5770;44.504;11.346;2023-02-28T15:12:11;16.67;;;14.98;;
11427;SDS011;5770;44.504;11.346;2023-02-28T15:14:42;18.58;;;14.95;;
11427;SDS011;5770;44.504;11.346;2023-02-28T15:17:12;17.55;;;14.95;;